| time (UTC) | temp F | wind direction | speed MPH | gust MPH | rain 1hr in | rain 24hr in | rain mn in | humidity % | barometer mb |
| 20260505022916 | 65 | 80 | 0.0 | 1.0 | 0.00 | 0.00 | 0.00 | 75 | 1017.1 |
| 20260505022414 | 65 | 94 | 1.0 | 3.0 | 0.00 | 0.00 | 0.00 | 74 | 1017.2 |
| 20260505021911 | 65 | 64 | 0.0 | 2.0 | 0.00 | 0.00 | 0.00 | 74 | 1017.0 |
| 20260505021407 | 65 | 69 | 0.0 | 2.0 | 0.00 | 0.00 | 0.00 | 73 | 1016.9 |
| 20260505020903 | 65 | 77 | 1.0 | 2.0 | 0.00 | 0.00 | 0.00 | 73 | 1017.0 |
| 20260505020358 | 66 | 99 | 2.0 | 2.0 | 0.00 | 0.00 | 0.00 | 73 | 1017.1 |
| 20260505015855 | 66 | 61 | 1.0 | 2.0 | 0.00 | 0.00 | 0.00 | 73 | 1017.0 |
| 20260505015353 | 66 | 72 | 1.0 | 2.0 | 0.00 | 0.00 | 0.00 | 72 | 1017.1 |
| 20260505014850 | 66 | 96 | 2.0 | 2.0 | 0.00 | 0.00 | 0.00 | 71 | 1017.0 |
| 20260505014347 | 66 | 103 | 2.0 | 3.0 | 0.00 | 0.00 | 0.00 | 71 | 1017.1 |
| 20260505013844 | 67 | 95 | 0.0 | 2.0 | 0.00 | 0.00 | 0.00 | 71 | 1016.9 |
| 20260505013340 | 67 | 69 | 2.0 | 3.0 | 0.00 | 0.00 | 0.00 | 71 | 1017.0 |
| 20260505012839 | 67 | 89 | 0.0 | 2.0 | 0.00 | 0.00 | 0.00 | 70 | 1017.0 |
| 20260505012337 | 67 | 75 | 0.0 | 3.0 | 0.00 | 0.00 | 0.00 | 70 | 1017.0 |
| 20260505011832 | 67 | 124 | 0.0 | 2.0 | 0.00 | 0.00 | 0.00 | 70 | 1016.9 |
| 20260505011330 | 67 | 96 | 1.0 | 3.0 | 0.00 | 0.00 | 0.00 | 70 | 1016.8 |
| 20260505010825 | 67 | 66 | 0.0 | 2.0 | 0.00 | 0.00 | 0.00 | 69 | 1016.8 |
| 20260505010321 | 68 | 74 | 2.0 | 3.0 | 0.00 | 0.00 | 0.00 | 69 | 1016.5 |
| 20260505005818 | 68 | 65 | 2.0 | 3.0 | 0.00 | 0.00 | 0.00 | 68 | 1016.8 |
| 20260505005315 | 68 | 130 | 1.0 | 3.0 | 0.00 | 0.00 | 0.00 | 68 | 1016.6 |
| 20260505004812 | 68 | 99 | 2.0 | 2.0 | 0.00 | 0.00 | 0.00 | 68 | 1016.5 |
| 20260505004308 | 69 | 95 | 2.0 | 3.0 | 0.00 | 0.00 | 0.00 | 67 | 1016.6 |
| 20260505003806 | 69 | 91 | 2.0 | 3.0 | 0.00 | 0.00 | 0.00 | 67 | 1016.5 |
| 20260505003303 | 69 | 84 | 5.0 | 5.0 | 0.00 | 0.00 | 0.00 | 66 | 1016.6 |
| 20260505002759 | 69 | 75 | 2.0 | 3.0 | 0.00 | 0.00 | 0.00 | 66 | 1016.5 |
| 20260505002256 | 69 | 79 | 2.0 | 3.0 | 0.00 | 0.00 | 0.00 | 65 | 1016.6 |
| 20260505001754 | 70 | 133 | 1.0 | 4.0 | 0.00 | 0.00 | 0.00 | 65 | 1016.6 |
| 20260505001251 | 70 | 99 | 2.0 | 6.0 | 0.00 | 0.00 | 0.00 | 64 | 1016.6 |
| 20260505000748 | 70 | 127 | 0.0 | 3.0 | 0.00 | 0.00 | 0.00 | 64 | 1016.5 |
| 20260505000246 | 70 | 108 | 2.0 | 5.0 | 0.00 | 0.00 | 0.00 | 63 | 1016.5 |
| 20260504235742 | 71 | 66 | 2.0 | 3.0 | 0.00 | 0.00 | 0.00 | 63 | 1016.3 |
| 20260504235239 | 71 | 87 | 2.0 | 6.0 | 0.00 | 0.00 | 0.00 | 62 | 1016.0 |
| 20260504234736 | 71 | 140 | 5.0 | 8.0 | 0.00 | 0.00 | 0.00 | 61 | 1016.0 |
| 20260504234233 | 72 | 103 | 4.0 | 4.0 | 0.00 | 0.00 | 0.00 | 60 | 1016.0 |
| 20260504233730 | 72 | 77 | 4.0 | 7.0 | 0.00 | 0.00 | 0.00 | 62 | 1015.9 |
| 20260504233225 | 72 | 63 | 5.0 | 5.0 | 0.00 | 0.00 | 0.00 | 60 | 1015.9 |
| 20260504232723 | 72 | 110 | 3.0 | 4.0 | 0.00 | 0.00 | 0.00 | 59 | 1015.9 |
| 20260504232220 | 73 | 150 | 0.0 | 5.0 | 0.00 | 0.00 | 0.00 | 58 | 1015.7 |
| 20260504231716 | 73 | 100 | 3.0 | 3.0 | 0.00 | 0.00 | 0.00 | 58 | 1015.8 |
| 20260504231213 | 74 | 79 | 3.0 | 5.0 | 0.00 | 0.00 | 0.00 | 57 | 1015.6 |
| 20260504230709 | 74 | 99 | 3.0 | 6.0 | 0.00 | 0.00 | 0.00 | 57 | 1015.8 |
| 20260504230208 | 74 | 109 | 2.0 | 9.0 | 0.00 | 0.00 | 0.00 | 57 | 1015.8 |
| 20260504225706 | 74 | 72 | 6.0 | 9.0 | 0.00 | 0.00 | 0.00 | 57 | 1015.8 |
| 20260504225201 | 74 | 110 | 3.0 | 8.0 | 0.00 | 0.00 | 0.00 | 57 | 1015.7 |
| 20260504224659 | 74 | 55 | 8.0 | 12.0 | 0.00 | 0.00 | 0.00 | 58 | 1015.7 |
| 20260504224156 | 75 | 88 | 3.0 | 5.0 | 0.00 | 0.00 | 0.00 | 56 | 1016.0 |
| 20260504223653 | 76 | 127 | 4.0 | 6.0 | 0.00 | 0.00 | 0.00 | 54 | 1015.9 |
| 20260504223148 | 75 | 145 | 3.0 | 5.0 | 0.00 | 0.00 | 0.00 | 55 | 1015.9 |
| 20260504222645 | 75 | 74 | 9.0 | 12.0 | 0.00 | 0.00 | 0.00 | 58 | 1016.0 |
| 20260504222142 | 75 | 83 | 2.0 | 6.0 | 0.00 | 0.00 | 0.00 | 54 | 1016.1 |
| 20260504221640 | 75 | 53 | 2.0 | 6.0 | 0.00 | 0.00 | 0.00 | 58 | 1016.0 |
| 20260504221137 | 75 | 69 | 5.0 | 8.0 | 0.00 | 0.00 | 0.00 | 59 | 1016.1 |
| 20260504220633 | 76 | 111 | 4.0 | 6.0 | 0.00 | 0.00 | 0.00 | 54 | 1015.9 |
| 20260504220131 | 75 | 135 | 5.0 | 6.0 | 0.00 | 0.00 | 0.00 | 56 | 1016.1 |
| 20260504215626 | 75 | 64 | 4.0 | 11.0 | 0.00 | 0.00 | 0.00 | 56 | 1016.1 |
| 20260504215124 | 76 | 115 | 6.0 | 7.0 | 0.00 | 0.00 | 0.00 | 54 | 1016.0 |
| 20260504214620 | 76 | 91 | 4.0 | 9.0 | 0.00 | 0.00 | 0.00 | 57 | 1015.6 |
| 20260504214116 | 75 | 80 | 6.0 | 8.0 | 0.00 | 0.00 | 0.00 | 55 | 1016.1 |
| 20260504213613 | 76 | 81 | 8.0 | 12.0 | 0.00 | 0.00 | 0.00 | 55 | 1015.9 |
| 20260504213110 | 76 | 64 | 6.0 | 7.0 | 0.00 | 0.00 | 0.00 | 55 | 1015.9 |
| 20260504212606 | 77 | 74 | 6.0 | 8.0 | 0.00 | 0.00 | 0.00 | 55 | 1016.1 |
| 20260504212103 | 76 | 100 | 2.0 | 9.0 | 0.00 | 0.00 | 0.00 | 56 | 1016.0 |
| 20260504211600 | 76 | 51 | 10.0 | 12.0 | 0.00 | 0.00 | 0.00 | 56 | 1015.9 |
| 20260504211057 | 76 | 75 | 4.0 | 9.0 | 0.00 | 0.00 | 0.00 | 54 | 1016.0 |
| 20260504210555 | 76 | 48 | 11.0 | 12.0 | 0.00 | 0.00 | 0.00 | 55 | 1016.0 |
| 20260504210051 | 77 | 64 | 5.0 | 10.0 | 0.00 | 0.00 | 0.00 | 52 | 1016.1 |
| 20260504205548 | 76 | 86 | 3.0 | 13.0 | 0.00 | 0.00 | 0.00 | 58 | 1016.2 |
| 20260504205046 | 76 | 72 | 3.0 | 11.0 | 0.00 | 0.00 | 0.00 | 54 | 1016.3 |
| 20260504204544 | 76 | 96 | 6.0 | 12.0 | 0.00 | 0.00 | 0.00 | 55 | 1016.5 |
| 20260504204043 | 77 | 55 | 9.0 | 9.0 | 0.00 | 0.00 | 0.00 | 54 | 1016.3 |
| 20260504203540 | 77 | 99 | 4.0 | 7.0 | 0.00 | 0.00 | 0.00 | 53 | 1016.4 |
| 20260504203038 | 77 | 184 | 3.0 | 8.0 | 0.00 | 0.00 | 0.00 | 55 | 1016.4 |
| 20260504202533 | 78 | 86 | 6.0 | 8.0 | 0.00 | 0.00 | 0.00 | 51 | 1016.3 |
| 20260504202030 | 77 | 55 | 2.0 | 4.0 | 0.00 | 0.00 | 0.00 | 52 | 1016.2 |
| 20260504201527 | 77 | 75 | 7.0 | 7.0 | 0.00 | 0.00 | 0.00 | 52 | 1016.3 |
| 20260504201025 | 76 | 100 | 5.0 | 11.0 | 0.00 | 0.00 | 0.00 | 56 | 1016.3 |
| 20260504200521 | 75 | 95 | 3.0 | 8.0 | 0.00 | 0.00 | 0.00 | 53 | 1016.3 |
| 20260504200018 | 75 | 71 | 7.0 | 11.0 | 0.00 | 0.00 | 0.00 | 55 | 1016.6 |
| 20260504195514 | 77 | 51 | 11.0 | 12.0 | 0.00 | 0.00 | 0.00 | 51 | 1016.6 |
| 20260504195011 | 76 | 122 | 2.0 | 4.0 | 0.00 | 0.00 | 0.00 | 51 | 1016.4 |
| 20260504194507 | 76 | 117 | 5.0 | 11.0 | 0.00 | 0.00 | 0.00 | 52 | 1016.7 |
| 20260504194003 | 76 | 73 | 7.0 | 13.0 | 0.00 | 0.00 | 0.00 | 51 | 1016.6 |
| 20260504193500 | 75 | 75 | 6.0 | 10.0 | 0.00 | 0.00 | 0.00 | 52 | 1016.6 |
| 20260504192959 | 76 | 93 | 4.0 | 8.0 | 0.00 | 0.00 | 0.00 | 51 | 1016.8 |
| 20260504192456 | 76 | 87 | 10.0 | 11.0 | 0.00 | 0.00 | 0.00 | 54 | 1016.8 |
| 20260504191955 | 76 | 72 | 11.0 | 12.0 | 0.00 | 0.00 | 0.00 | 52 | 1016.7 |
| 20260504191452 | 76 | 58 | 6.0 | 11.0 | 0.00 | 0.00 | 0.00 | 49 | 1016.8 |
| 20260504190947 | 77 | 80 | 2.0 | 7.0 | 0.00 | 0.00 | 0.00 | 53 | 1017.0 |
| 20260504190443 | 78 | 32 | 8.0 | 11.0 | 0.00 | 0.00 | 0.00 | 49 | 1017.1 |
| 20260504185940 | 76 | 181 | 2.0 | 11.0 | 0.00 | 0.00 | 0.00 | 52 | 1017.1 |
| 20260504185437 | 76 | 75 | 5.0 | 9.0 | 0.00 | 0.00 | 0.00 | 52 | 1016.9 |
| 20260504184933 | 76 | 48 | 7.0 | 11.0 | 0.00 | 0.00 | 0.00 | 53 | 1017.1 |
| 20260504184429 | 76 | 82 | 5.0 | 9.0 | 0.00 | 0.00 | 0.00 | 48 | 1017.5 |
| 20260504183925 | 75 | 114 | 3.0 | 11.0 | 0.00 | 0.00 | 0.00 | 52 | 1017.6 |
| 20260504183423 | 76 | 4 | 7.0 | 12.0 | 0.00 | 0.00 | 0.00 | 50 | 1017.6 |
| 20260504182921 | 76 | 37 | 4.0 | 12.0 | 0.00 | 0.00 | 0.00 | 49 | 1017.5 |
| 20260504182417 | 75 | 47 | 2.0 | 5.0 | 0.00 | 0.00 | 0.00 | 49 | 1017.4 |
| 20260504181914 | 75 | 49 | 15.0 | 17.0 | 0.00 | 0.00 | 0.00 | 49 | 1017.6 |
| 20260504181412 | 76 | 54 | 11.0 | 16.0 | 0.00 | 0.00 | 0.00 | 49 | 1017.8 |
| 20260504180910 | 77 | 77 | 3.0 | 4.0 | 0.00 | 0.00 | 0.00 | 51 | 1017.5 |
| 20260504180408 | 76 | 131 | 2.0 | 9.0 | 0.00 | 0.00 | 0.00 | 47 | 1017.6 |
| 20260504175906 | 76 | 73 | 6.0 | 15.0 | 0.00 | 0.00 | 0.00 | 47 | 1017.5 |
| 20260504175403 | 76 | 78 | 4.0 | 9.0 | 0.00 | 0.00 | 0.00 | 47 | 1017.7 |
| 20260504174901 | 76 | 73 | 3.0 | 16.0 | 0.00 | 0.00 | 0.00 | 48 | 1017.6 |
| 20260504174358 | 77 | 74 | 7.0 | 10.0 | 0.00 | 0.00 | 0.00 | 44 | 1017.8 |
| 20260504173855 | 76 | 66 | 3.0 | 10.0 | 0.00 | 0.00 | 0.00 | 42 | 1017.8 |
| 20260504173351 | 76 | 97 | 3.0 | 5.0 | 0.00 | 0.00 | 0.00 | 47 | 1017.9 |
| 20260504172849 | 75 | 70 | 3.0 | 5.0 | 0.00 | 0.00 | 0.00 | 43 | 1017.9 |
| 20260504172345 | 75 | 44 | 6.0 | 11.0 | 0.00 | 0.00 | 0.00 | 45 | 1018.0 |
| 20260504171841 | 75 | 80 | 6.0 | 9.0 | 0.00 | 0.00 | 0.00 | 45 | 1018.1 |
| 20260504171338 | 75 | 55 | 8.0 | 11.0 | 0.00 | 0.00 | 0.00 | 43 | 1018.1 |
| 20260504170836 | 75 | 323 | 0.0 | 7.0 | 0.00 | 0.00 | 0.00 | 44 | 1017.9 |
| 20260504170332 | 75 | 57 | 7.0 | 8.0 | 0.00 | 0.00 | 0.00 | 47 | 1018.2 |
| 20260504160251 | 75 | 95 | 4.0 | 10.0 | 0.00 | 0.00 | 0.00 | 43 | 1018.5 |
| 20260504150716 | 75 | 8 | 9.0 | 9.0 | 0.00 | 0.00 | 0.00 | 42 | 1018.2 |
| 20260504150213 | 75 | 69 | 4.0 | 10.0 | 0.00 | 0.00 | 0.00 | 41 | 1018.5 |
| 20260504141142 | 74 | 349 | 2.0 | 9.0 | 0.00 | 0.00 | 0.00 | 43 | 1018.6 |
| 20260504140639 | 73 | 5 | 3.0 | 8.0 | 0.00 | 0.00 | 0.00 | 41 | 1018.7 |
| 20260504140134 | 73 | 16 | 6.0 | 6.0 | 0.00 | 0.00 | 0.00 | 48 | 1018.5 |
| 20260504130602 | 71 | 33 | 6.0 | 8.0 | 0.00 | 0.00 | 0.00 | 58 | 1018.5 |
| 20260504110450 | 55 | 141 | 0.0 | 2.0 | 0.00 | 0.00 | 0.00 | 96 | 1017.7 |
| 20260504100413 | 55 | 309 | 0.0 | 0.0 | 0.00 | 0.00 | 0.00 | 96 | 1017.4 |
| 20260504081806 | 57 | 217 | 0.0 | 0.0 | 0.00 | 0.00 | 0.00 | 95 | 1017.5 |
| 20260504081302 | 57 | 217 | 0.0 | 0.0 | 0.00 | 0.00 | 0.00 | 95 | 1017.5 |
| 20260504080759 | 57 | 217 | 0.0 | 0.0 | 0.00 | 0.00 | 0.00 | 95 | 1017.5 |
| 20260504080255 | 57 | 230 | 0.0 | 0.0 | 0.00 | 0.00 | 0.00 | 95 | 1017.4 |
| 20260504070223 | 56 | 113 | 0.0 | 0.0 | 0.00 | 0.00 | 0.00 | 94 | 1017.2 |
| 20260504060143 | 57 | 142 | 0.0 | 0.0 | 0.00 | 0.00 | 0.00 | 93 | 1018.6 |
| 20260504050611 | 58 | 129 | 0.0 | 0.0 | 0.00 | 0.00 | 0.00 | 90 | 1018.6 |
| 20260504050108 | 58 | 123 | 0.0 | 0.0 | 0.00 | 0.00 | 0.00 | 89 | 1018.6 |
| 20260504045605 | 58 | 126 | 0.0 | 0.0 | 0.00 | 0.00 | 0.00 | 89 | 1018.6 |
| 20260504045100 | 59 | 89 | 0.0 | 1.0 | 0.00 | 0.00 | 0.00 | 88 | 1018.6 |
| 20260504044558 | 59 | 142 | 0.0 | 1.0 | 0.00 | 0.00 | 0.00 | 88 | 1018.6 |
| 20260504044055 | 59 | 129 | 0.0 | 0.0 | 0.00 | 0.00 | 0.00 | 87 | 1018.8 |
| 20260504043552 | 59 | 142 | 0.0 | 0.0 | 0.00 | 0.00 | 0.00 | 87 | 1018.5 |
| 20260504043049 | 59 | 150 | 0.0 | 0.0 | 0.00 | 0.00 | 0.00 | 87 | 1018.8 |
| 20260504042546 | 60 | 130 | 0.0 | 0.0 | 0.00 | 0.00 | 0.00 | 86 | 1018.7 |
| 20260504042043 | 60 | 135 | 0.0 | 0.0 | 0.00 | 0.00 | 0.00 | 86 | 1018.8 |
| 20260504041539 | 60 | 135 | 0.0 | 0.0 | 0.00 | 0.00 | 0.00 | 86 | 1018.6 |
| 20260504041035 | 60 | 89 | 0.0 | 0.0 | 0.00 | 0.00 | 0.00 | 85 | 1018.6 |
| 20260504040533 | 61 | 116 | 0.0 | 1.0 | 0.00 | 0.00 | 0.00 | 84 | 1018.6 |
| 20260504040029 | 61 | 93 | 0.0 | 0.0 | 0.00 | 0.00 | 0.00 | 84 | 1018.5 |
| 20260504035526 | 61 | 92 | 2.0 | 3.0 | 0.00 | 0.00 | 0.00 | 84 | 1018.7 |
| 20260504035022 | 61 | 135 | 0.0 | 2.0 | 0.00 | 0.00 | 0.00 | 82 | 1018.5 |
| 20260504034520 | 61 | 89 | 2.0 | 2.0 | 0.00 | 0.00 | 0.00 | 82 | 1018.6 |
| 20260504034017 | 62 | 128 | 0.0 | 2.0 | 0.00 | 0.00 | 0.00 | 81 | 1018.6 |
| 20260504033515 | 63 | 89 | 2.0 | 3.0 | 0.00 | 0.00 | 0.00 | 80 | 1018.4 |
| 20260504033012 | 64 | 92 | 2.0 | 2.0 | 0.00 | 0.00 | 0.00 | 78 | 1018.6 |
| 20260504032509 | 64 | 41 | 2.0 | 3.0 | 0.00 | 0.00 | 0.00 | 77 | 1018.4 |
| 20260504032006 | 64 | 45 | 2.0 | 4.0 | 0.00 | 0.00 | 0.00 | 77 | 1018.7 |
| 20260504031502 | 64 | 62 | 2.0 | 3.0 | 0.00 | 0.00 | 0.00 | 77 | 1018.6 |
| 20260504030959 | 64 | 93 | 1.0 | 2.0 | 0.00 | 0.00 | 0.00 | 76 | 1018.6 |
| 20260504030456 | 64 | 52 | 3.0 | 3.0 | 0.00 | 0.00 | 0.00 | 76 | 1018.7 |
| 20260504025952 | 64 | 51 | 3.0 | 3.0 | 0.00 | 0.00 | 0.00 | 75 | 1018.8 |
| 20260504025449 | 64 | 54 | 3.0 | 3.0 | 0.00 | 0.00 | 0.00 | 75 | 1018.7 |
| 20260504024946 | 64 | 48 | 2.0 | 3.0 | 0.00 | 0.00 | 0.00 | 74 | 1018.9 |
| 20260504024443 | 64 | 60 | 3.0 | 3.0 | 0.00 | 0.00 | 0.00 | 73 | 1018.7 |
| 20260504023940 | 64 | 71 | 3.0 | 3.0 | 0.00 | 0.00 | 0.00 | 74 | 1018.6 |
| 20260504023437 | 64 | 58 | 3.0 | 3.0 | 0.00 | 0.00 | 0.00 | 73 | 1018.8 |